< < Back
Terminal Aerodrome Forecast


Current Version              Previous Versions:   1  2  3  4  5  6  7  8  9  

Terminal Aerodrome Forecast

672
FTUS42 KILM 291120
TAFILM
TAF
KILM 291120Z 2912/3012 06004KT P6SM SCT020 SCT070 SCT150
      TEMPO 2912/2913 BKN015
     FM291300 09008KT P6SM SCT020 SCT070 SCT140=

Latest METAR

164
SAUS70 KWBC 292000 RRI
MTRILM
METAR KILM 291953Z AUTO 08008KT 10SM CLR 31/22 A2997 RMK AO2 SLP148
T03060217


USA.gov is the U.S. government's official web portal to all federal, state and local government web resources and services.